sensor_id;sensor_type;location;lat;lon;timestamp;P1;durP1;ratioP1;P2;durP2;ratioP2
5299;SDS011;70402;42.670;23.258;2023-09-08T00:01:21;7.30;;;4.80;;
5299;SDS011;70402;42.670;23.258;2023-09-08T00:03:47;10.23;;;6.00;;
5299;SDS011;70402;42.670;23.258;2023-09-08T00:06:13;7.57;;;5.30;;
5299;SDS011;70402;42.670;23.258;2023-09-08T00:08:39;7.70;;;5.20;;
5299;SDS011;70402;42.670;23.258;2023-09-08T00:11:05;7.03;;;5.10;;
5299;SDS011;70402;42.670;23.258;2023-09-08T00:13:32;8.90;;;5.87;;
5299;SDS011;70402;42.670;23.258;2023-09-08T00:15:58;9.40;;;6.23;;
5299;SDS011;70402;42.670;23.258;2023-09-08T00:18:24;8.13;;;5.50;;
5299;SDS011;70402;42.670;23.258;2023-09-08T00:20:50;7.20;;;5.03;;
5299;SDS011;70402;42.670;23.258;2023-09-08T00:23:15;6.50;;;4.90;;
5299;SDS011;70402;42.670;23.258;2023-09-08T00:25:41;9.00;;;5.50;;
5299;SDS011;70402;42.670;23.258;2023-09-08T00:28:07;6.27;;;4.10;;
5299;SDS011;70402;42.670;23.258;2023-09-08T00:30:33;5.60;;;4.03;;
5299;SDS011;70402;42.670;23.258;2023-09-08T00:32:59;8.00;;;4.30;;
5299;SDS011;70402;42.670;23.258;2023-09-08T00:35:25;5.60;;;4.07;;
5299;SDS011;70402;42.670;23.258;2023-09-08T00:37:50;6.03;;;4.10;;
5299;SDS011;70402;42.670;23.258;2023-09-08T00:40:16;7.53;;;3.70;;
5299;SDS011;70402;42.670;23.258;2023-09-08T00:42:42;6.13;;;3.63;;
5299;SDS011;70402;42.670;23.258;2023-09-08T00:45:08;7.93;;;4.10;;
5299;SDS011;70402;42.670;23.258;2023-09-08T00:47:35;5.67;;;3.60;;
5299;SDS011;70402;42.670;23.258;2023-09-08T00:50:03;5.77;;;3.63;;
5299;SDS011;70402;42.670;23.258;2023-09-08T00:52:36;5.90;;;3.93;;
5299;SDS011;70402;42.670;23.258;2023-09-08T00:55:02;6.60;;;3.43;;
5299;SDS011;70402;42.670;23.258;2023-09-08T00:57:29;5.10;;;3.50;;
5299;SDS011;70402;42.670;23.258;2023-09-08T00:59:56;3.60;;;2.87;;
5299;SDS011;70402;42.670;23.258;2023-09-08T01:02:22;8.43;;;4.07;;
5299;SDS011;70402;42.670;23.258;2023-09-08T01:04:48;7.10;;;3.33;;
5299;SDS011;70402;42.670;23.258;2023-09-08T01:07:14;5.20;;;3.00;;
5299;SDS011;70402;42.670;23.258;2023-09-08T01:09:40;7.10;;;3.87;;
5299;SDS011;70402;42.670;23.258;2023-09-08T01:12:07;8.53;;;3.60;;
5299;SDS011;70402;42.670;23.258;2023-09-08T01:14:33;4.90;;;3.03;;
5299;SDS011;70402;42.670;23.258;2023-09-08T01:16:59;4.97;;;3.80;;
5299;SDS011;70402;42.670;23.258;2023-09-08T01:19:25;5.27;;;3.03;;
5299;SDS011;70402;42.670;23.258;2023-09-08T01:27:32;5.80;;;3.77;;
5299;SDS011;70402;42.670;23.258;2023-09-08T01:29:59;5.60;;;4.10;;
5299;SDS011;70402;42.670;23.258;2023-09-08T01:32:26;4.47;;;3.03;;
5299;SDS011;70402;42.670;23.258;2023-09-08T01:34:52;5.50;;;3.87;;
5299;SDS011;70402;42.670;23.258;2023-09-08T01:37:18;4.70;;;3.10;;
5299;SDS011;70402;42.670;23.258;2023-09-08T01:39:43;4.17;;;2.80;;
5299;SDS011;70402;42.670;23.258;2023-09-08T01:42:09;4.40;;;3.07;;
5299;SDS011;70402;42.670;23.258;2023-09-08T01:44:35;6.53;;;3.40;;
5299;SDS011;70402;42.670;23.258;2023-09-08T01:47:01;4.93;;;3.27;;
5299;SDS011;70402;42.670;23.258;2023-09-08T01:49:27;4.53;;;3.43;;
5299;SDS011;70402;42.670;23.258;2023-09-08T01:51:53;4.77;;;3.23;;
5299;SDS011;70402;42.670;23.258;2023-09-08T01:54:18;4.13;;;3.10;;
5299;SDS011;70402;42.670;23.258;2023-09-08T01:56:44;5.47;;;3.20;;
5299;SDS011;70402;42.670;23.258;2023-09-08T01:59:10;5.10;;;3.80;;
5299;SDS011;70402;42.670;23.258;2023-09-08T02:01:39;4.40;;;3.00;;
5299;SDS011;70402;42.670;23.258;2023-09-08T02:04:05;5.10;;;3.30;;
5299;SDS011;70402;42.670;23.258;2023-09-08T02:06:31;6.70;;;4.37;;
5299;SDS011;70402;42.670;23.258;2023-09-08T02:08:57;7.43;;;3.90;;
5299;SDS011;70402;42.670;23.258;2023-09-08T02:11:23;6.27;;;3.10;;
5299;SDS011;70402;42.670;23.258;2023-09-08T02:13:48;5.50;;;3.67;;
5299;SDS011;70402;42.670;23.258;2023-09-08T02:16:15;4.77;;;3.50;;
5299;SDS011;70402;42.670;23.258;2023-09-08T02:18:44;4.37;;;3.43;;
5299;SDS011;70402;42.670;23.258;2023-09-08T02:21:10;6.00;;;3.30;;
5299;SDS011;70402;42.670;23.258;2023-09-08T02:23:37;4.90;;;3.73;;
5299;SDS011;70402;42.670;23.258;2023-09-08T02:26:03;5.20;;;3.90;;
5299;SDS011;70402;42.670;23.258;2023-09-08T02:28:29;6.13;;;3.57;;
5299;SDS011;70402;42.670;23.258;2023-09-08T02:30:55;8.30;;;4.33;;
5299;SDS011;70402;42.670;23.258;2023-09-08T02:33:21;7.37;;;4.37;;
5299;SDS011;70402;42.670;23.258;2023-09-08T02:35:47;6.23;;;3.70;;
5299;SDS011;70402;42.670;23.258;2023-09-08T02:38:13;7.63;;;4.03;;
5299;SDS011;70402;42.670;23.258;2023-09-08T02:40:39;6.37;;;3.37;;
5299;SDS011;70402;42.670;23.258;2023-09-08T02:43:05;6.23;;;4.50;;
5299;SDS011;70402;42.670;23.258;2023-09-08T02:45:30;6.80;;;4.27;;
5299;SDS011;70402;42.670;23.258;2023-09-08T02:47:56;5.00;;;4.20;;
5299;SDS011;70402;42.670;23.258;2023-09-08T02:50:22;6.97;;;3.93;;
5299;SDS011;70402;42.670;23.258;2023-09-08T02:52:49;6.33;;;4.30;;
5299;SDS011;70402;42.670;23.258;2023-09-08T02:55:15;6.03;;;4.27;;
5299;SDS011;70402;42.670;23.258;2023-09-08T02:57:40;10.60;;;4.70;;
5299;SDS011;70402;42.670;23.258;2023-09-08T03:00:07;7.60;;;4.90;;
5299;SDS011;70402;42.670;23.258;2023-09-08T03:02:33;7.77;;;5.10;;
5299;SDS011;70402;42.670;23.258;2023-09-08T03:04:59;10.07;;;5.50;;
5299;SDS011;70402;42.670;23.258;2023-09-08T03:07:26;12.17;;;4.43;;
5299;SDS011;70402;42.670;23.258;2023-09-08T03:09:52;7.63;;;4.77;;
5299;SDS011;70402;42.670;23.258;2023-09-08T03:12:18;6.90;;;4.97;;
5299;SDS011;70402;42.670;23.258;2023-09-08T03:14:44;7.37;;;4.97;;
5299;SDS011;70402;42.670;23.258;2023-09-08T03:17:11;7.97;;;5.10;;
5299;SDS011;70402;42.670;23.258;2023-09-08T03:19:38;7.27;;;5.10;;
5299;SDS011;70402;42.670;23.258;2023-09-08T03:22:04;7.03;;;5.13;;
5299;SDS011;70402;42.670;23.258;2023-09-08T03:24:30;10.03;;;5.00;;
5299;SDS011;70402;42.670;23.258;2023-09-08T03:26:56;7.27;;;4.83;;
5299;SDS011;70402;42.670;23.258;2023-09-08T03:29:23;7.20;;;4.57;;
5299;SDS011;70402;42.670;23.258;2023-09-08T03:31:49;7.50;;;5.83;;
5299;SDS011;70402;42.670;23.258;2023-09-08T03:34:14;8.80;;;5.20;;
5299;SDS011;70402;42.670;23.258;2023-09-08T03:36:40;6.83;;;4.43;;
5299;SDS011;70402;42.670;23.258;2023-09-08T03:39:06;9.13;;;6.23;;
5299;SDS011;70402;42.670;23.258;2023-09-08T03:41:34;9.57;;;6.70;;
5299;SDS011;70402;42.670;23.258;2023-09-08T03:44:00;14.10;;;7.80;;
5299;SDS011;70402;42.670;23.258;2023-09-08T03:46:26;11.90;;;7.60;;
5299;SDS011;70402;42.670;23.258;2023-09-08T03:48:52;12.43;;;7.93;;
5299;SDS011;70402;42.670;23.258;2023-09-08T03:51:23;18.50;;;9.33;;
5299;SDS011;70402;42.670;23.258;2023-09-08T03:53:49;10.70;;;6.90;;
5299;SDS011;70402;42.670;23.258;2023-09-08T03:56:16;14.03;;;8.63;;
5299;SDS011;70402;42.670;23.258;2023-09-08T03:58:42;7.53;;;5.43;;
5299;SDS011;70402;42.670;23.258;2023-09-08T04:01:08;8.47;;;5.67;;
5299;SDS011;70402;42.670;23.258;2023-09-08T04:03:34;13.33;;;8.00;;
5299;SDS011;70402;42.670;23.258;2023-09-08T04:05:59;13.63;;;5.83;;
5299;SDS011;70402;42.670;23.258;2023-09-08T04:08:25;16.10;;;7.10;;
5299;SDS011;70402;42.670;23.258;2023-09-08T04:10:51;14.87;;;9.17;;
5299;SDS011;70402;42.670;23.258;2023-09-08T04:13:17;9.30;;;5.70;;
5299;SDS011;70402;42.670;23.258;2023-09-08T04:15:43;9.77;;;5.30;;
5299;SDS011;70402;42.670;23.258;2023-09-08T04:18:09;17.00;;;9.07;;
5299;SDS011;70402;42.670;23.258;2023-09-08T04:20:35;28.50;;;13.57;;
5299;SDS011;70402;42.670;23.258;2023-09-08T04:23:00;19.33;;;10.50;;
5299;SDS011;70402;42.670;23.258;2023-09-08T04:25:26;24.83;;;11.67;;
5299;SDS011;70402;42.670;23.258;2023-09-08T04:27:52;8.00;;;5.83;;
5299;SDS011;70402;42.670;23.258;2023-09-08T04:30:18;6.80;;;4.73;;
5299;SDS011;70402;42.670;23.258;2023-09-08T04:32:44;6.10;;;4.73;;
5299;SDS011;70402;42.670;23.258;2023-09-08T04:35:10;7.53;;;5.67;;
5299;SDS011;70402;42.670;23.258;2023-09-08T04:37:36;6.50;;;5.37;;
5299;SDS011;70402;42.670;23.258;2023-09-08T04:40:04;9.27;;;5.93;;
5299;SDS011;70402;42.670;23.258;2023-09-08T04:42:30;8.77;;;5.57;;
5299;SDS011;70402;42.670;23.258;2023-09-08T04:44:56;9.23;;;5.70;;
5299;SDS011;70402;42.670;23.258;2023-09-08T04:47:22;7.03;;;5.30;;
5299;SDS011;70402;42.670;23.258;2023-09-08T04:49:48;7.77;;;5.57;;
5299;SDS011;70402;42.670;23.258;2023-09-08T04:52:14;10.47;;;6.13;;
5299;SDS011;70402;42.670;23.258;2023-09-08T04:54:40;12.00;;;6.60;;
5299;SDS011;70402;42.670;23.258;2023-09-08T04:57:06;7.13;;;5.20;;
5299;SDS011;70402;42.670;23.258;2023-09-08T04:59:32;9.23;;;5.93;;
5299;SDS011;70402;42.670;23.258;2023-09-08T05:01:58;7.87;;;5.03;;
5299;SDS011;70402;42.670;23.258;2023-09-08T05:04:24;11.60;;;5.77;;
5299;SDS011;70402;42.670;23.258;2023-09-08T05:06:50;6.73;;;4.93;;
5299;SDS011;70402;42.670;23.258;2023-09-08T05:09:16;11.73;;;5.60;;
5299;SDS011;70402;42.670;23.258;2023-09-08T05:11:41;8.30;;;5.37;;
5299;SDS011;70402;42.670;23.258;2023-09-08T05:14:07;9.00;;;5.30;;
5299;SDS011;70402;42.670;23.258;2023-09-08T05:16:33;9.30;;;5.67;;
5299;SDS011;70402;42.670;23.258;2023-09-08T05:19:05;7.93;;;5.70;;
5299;SDS011;70402;42.670;23.258;2023-09-08T05:21:31;7.87;;;4.90;;
5299;SDS011;70402;42.670;23.258;2023-09-08T05:23:57;10.23;;;4.63;;
5299;SDS011;70402;42.670;23.258;2023-09-08T05:26:23;8.60;;;6.20;;
5299;SDS011;70402;42.670;23.258;2023-09-08T05:28:49;8.10;;;4.23;;
5299;SDS011;70402;42.670;23.258;2023-09-08T05:31:15;7.10;;;4.43;;
5299;SDS011;70402;42.670;23.258;2023-09-08T05:33:42;8.97;;;5.07;;
5299;SDS011;70402;42.670;23.258;2023-09-08T05:36:08;6.10;;;4.10;;
5299;SDS011;70402;42.670;23.258;2023-09-08T05:38:34;7.57;;;4.47;;
5299;SDS011;70402;42.670;23.258;2023-09-08T05:41:01;7.17;;;3.90;;
5299;SDS011;70402;42.670;23.258;2023-09-08T05:43:28;4.67;;;3.50;;
5299;SDS011;70402;42.670;23.258;2023-09-08T05:45:54;6.47;;;4.30;;
5299;SDS011;70402;42.670;23.258;2023-09-08T05:48:20;6.70;;;4.03;;
5299;SDS011;70402;42.670;23.258;2023-09-08T05:50:46;5.20;;;3.97;;
5299;SDS011;70402;42.670;23.258;2023-09-08T05:53:12;4.30;;;3.47;;
5299;SDS011;70402;42.670;23.258;2023-09-08T05:55:39;6.73;;;3.33;;
5299;SDS011;70402;42.670;23.258;2023-09-08T05:58:05;8.33;;;3.83;;
5299;SDS011;70402;42.670;23.258;2023-09-08T06:00:32;4.93;;;3.87;;
5299;SDS011;70402;42.670;23.258;2023-09-08T06:02:58;4.30;;;2.73;;
5299;SDS011;70402;42.670;23.258;2023-09-08T06:05:25;4.10;;;3.07;;
5299;SDS011;70402;42.670;23.258;2023-09-08T06:07:51;7.10;;;3.17;;
5299;SDS011;70402;42.670;23.258;2023-09-08T06:10:17;4.57;;;2.77;;
5299;SDS011;70402;42.670;23.258;2023-09-08T06:12:44;4.50;;;3.33;;
5299;SDS011;70402;42.670;23.258;2023-09-08T06:15:10;4.80;;;2.73;;
5299;SDS011;70402;42.670;23.258;2023-09-08T06:17:36;4.63;;;3.17;;
5299;SDS011;70402;42.670;23.258;2023-09-08T06:20:03;3.93;;;3.00;;
5299;SDS011;70402;42.670;23.258;2023-09-08T06:22:29;7.73;;;3.03;;
5299;SDS011;70402;42.670;23.258;2023-09-08T06:24:55;6.70;;;2.77;;
5299;SDS011;70402;42.670;23.258;2023-09-08T06:27:21;5.23;;;3.40;;
5299;SDS011;70402;42.670;23.258;2023-09-08T06:29:47;5.93;;;3.60;;
5299;SDS011;70402;42.670;23.258;2023-09-08T06:32:14;5.10;;;3.03;;
5299;SDS011;70402;42.670;23.258;2023-09-08T06:34:40;5.30;;;3.10;;
5299;SDS011;70402;42.670;23.258;2023-09-08T06:37:08;4.23;;;2.80;;
5299;SDS011;70402;42.670;23.258;2023-09-08T06:39:34;5.63;;;3.90;;
5299;SDS011;70402;42.670;23.258;2023-09-08T06:42:00;3.40;;;2.57;;
5299;SDS011;70402;42.670;23.258;2023-09-08T06:44:26;4.40;;;2.83;;
5299;SDS011;70402;42.670;23.258;2023-09-08T06:46:52;4.90;;;3.20;;
5299;SDS011;70402;42.670;23.258;2023-09-08T06:49:19;3.40;;;2.53;;
5299;SDS011;70402;42.670;23.258;2023-09-08T06:51:45;6.00;;;3.13;;
5299;SDS011;70402;42.670;23.258;2023-09-08T06:54:13;4.20;;;2.70;;
5299;SDS011;70402;42.670;23.258;2023-09-08T06:56:39;5.30;;;3.10;;
5299;SDS011;70402;42.670;23.258;2023-09-08T06:59:06;5.30;;;2.33;;
5299;SDS011;70402;42.670;23.258;2023-09-08T07:01:32;3.70;;;2.37;;
5299;SDS011;70402;42.670;23.258;2023-09-08T07:03:58;4.13;;;2.70;;
5299;SDS011;70402;42.670;23.258;2023-09-08T07:06:24;4.40;;;3.23;;
5299;SDS011;70402;42.670;23.258;2023-09-08T07:08:50;4.97;;;2.63;;
5299;SDS011;70402;42.670;23.258;2023-09-08T07:11:17;3.53;;;2.40;;
5299;SDS011;70402;42.670;23.258;2023-09-08T07:13:43;4.97;;;2.73;;
5299;SDS011;70402;42.670;23.258;2023-09-08T07:16:09;4.00;;;2.53;;
5299;SDS011;70402;42.670;23.258;2023-09-08T07:18:36;3.07;;;2.10;;
5299;SDS011;70402;42.670;23.258;2023-09-08T07:21:03;4.23;;;2.60;;
5299;SDS011;70402;42.670;23.258;2023-09-08T07:23:30;3.37;;;2.63;;
5299;SDS011;70402;42.670;23.258;2023-09-08T07:25:56;6.50;;;2.20;;
5299;SDS011;70402;42.670;23.258;2023-09-08T07:28:22;3.47;;;2.20;;
5299;SDS011;70402;42.670;23.258;2023-09-08T07:30:48;4.40;;;2.50;;
5299;SDS011;70402;42.670;23.258;2023-09-08T07:33:14;3.27;;;2.20;;
5299;SDS011;70402;42.670;23.258;2023-09-08T07:35:41;4.00;;;2.67;;
5299;SDS011;70402;42.670;23.258;2023-09-08T07:38:07;3.13;;;2.37;;
5299;SDS011;70402;42.670;23.258;2023-09-08T07:40:33;3.10;;;2.47;;
5299;SDS011;70402;42.670;23.258;2023-09-08T07:43:00;6.80;;;1.87;;
5299;SDS011;70402;42.670;23.258;2023-09-08T07:45:26;3.60;;;2.27;;
5299;SDS011;70402;42.670;23.258;2023-09-08T07:47:52;4.07;;;2.63;;
5299;SDS011;70402;42.670;23.258;2023-09-08T07:50:20;5.53;;;2.30;;
5299;SDS011;70402;42.670;23.258;2023-09-08T07:52:47;6.03;;;3.30;;
5299;SDS011;70402;42.670;23.258;2023-09-08T07:55:14;3.37;;;2.60;;
5299;SDS011;70402;42.670;23.258;2023-09-08T07:57:43;6.00;;;2.53;;
5299;SDS011;70402;42.670;23.258;2023-09-08T08:00:11;4.10;;;2.20;;
5299;SDS011;70402;42.670;23.258;2023-09-08T08:02:47;3.23;;;2.40;;
5299;SDS011;70402;42.670;23.258;2023-09-08T08:05:14;3.27;;;2.60;;
5299;SDS011;70402;42.670;23.258;2023-09-08T08:07:41;6.33;;;2.70;;
5299;SDS011;70402;42.670;23.258;2023-09-08T08:10:07;3.77;;;2.70;;
5299;SDS011;70402;42.670;23.258;2023-09-08T08:12:34;5.60;;;2.53;;
5299;SDS011;70402;42.670;23.258;2023-09-08T08:15:00;13.83;;;2.30;;
5299;SDS011;70402;42.670;23.258;2023-09-08T08:17:27;5.53;;;2.23;;
5299;SDS011;70402;42.670;23.258;2023-09-08T08:19:54;3.73;;;2.37;;
5299;SDS011;70402;42.670;23.258;2023-09-08T08:22:21;4.13;;;2.67;;
5299;SDS011;70402;42.670;23.258;2023-09-08T08:24:47;6.27;;;2.70;;
5299;SDS011;70402;42.670;23.258;2023-09-08T08:27:13;2.60;;;2.03;;
5299;SDS011;70402;42.670;23.258;2023-09-08T08:29:40;5.40;;;2.30;;
5299;SDS011;70402;42.670;23.258;2023-09-08T08:32:06;3.90;;;2.50;;
5299;SDS011;70402;42.670;23.258;2023-09-08T08:34:32;3.60;;;2.20;;
5299;SDS011;70402;42.670;23.258;2023-09-08T08:36:58;3.30;;;1.90;;
5299;SDS011;70402;42.670;23.258;2023-09-08T08:39:24;4.33;;;2.03;;
5299;SDS011;70402;42.670;23.258;2023-09-08T08:41:51;18.13;;;2.43;;
5299;SDS011;70402;42.670;23.258;2023-09-08T08:44:17;3.03;;;2.10;;
5299;SDS011;70402;42.670;23.258;2023-09-08T08:46:44;5.60;;;2.33;;
5299;SDS011;70402;42.670;23.258;2023-09-08T08:49:14;7.70;;;2.20;;
5299;SDS011;70402;42.670;23.258;2023-09-08T08:51:44;3.10;;;2.13;;
5299;SDS011;70402;42.670;23.258;2023-09-08T08:54:12;2.73;;;2.00;;
5299;SDS011;70402;42.670;23.258;2023-09-08T08:56:39;2.83;;;2.00;;
5299;SDS011;70402;42.670;23.258;2023-09-08T08:59:05;2.73;;;1.90;;
5299;SDS011;70402;42.670;23.258;2023-09-08T09:01:32;2.97;;;2.20;;
5299;SDS011;70402;42.670;23.258;2023-09-08T09:03:58;3.93;;;2.00;;
5299;SDS011;70402;42.670;23.258;2023-09-08T09:06:25;3.50;;;2.43;;
5299;SDS011;70402;42.670;23.258;2023-09-08T09:08:51;6.03;;;2.40;;
5299;SDS011;70402;42.670;23.258;2023-09-08T09:11:17;4.07;;;2.30;;
5299;SDS011;70402;42.670;23.258;2023-09-08T09:13:43;4.30;;;2.43;;
5299;SDS011;70402;42.670;23.258;2023-09-08T09:16:10;2.50;;;2.00;;
5299;SDS011;70402;42.670;23.258;2023-09-08T09:18:55;2.50;;;1.93;;
5299;SDS011;70402;42.670;23.258;2023-09-08T09:21:22;3.83;;;2.23;;
5299;SDS011;70402;42.670;23.258;2023-09-08T09:23:48;5.67;;;2.87;;
5299;SDS011;70402;42.670;23.258;2023-09-08T09:26:25;3.77;;;2.30;;
5299;SDS011;70402;42.670;23.258;2023-09-08T09:28:51;3.87;;;2.30;;
5299;SDS011;70402;42.670;23.258;2023-09-08T09:31:22;4.20;;;2.27;;
5299;SDS011;70402;42.670;23.258;2023-09-08T09:34:00;3.30;;;2.00;;
5299;SDS011;70402;42.670;23.258;2023-09-08T09:36:29;3.90;;;2.10;;
5299;SDS011;70402;42.670;23.258;2023-09-08T09:38:59;4.70;;;2.60;;
5299;SDS011;70402;42.670;23.258;2023-09-08T09:41:28;4.90;;;2.40;;
5299;SDS011;70402;42.670;23.258;2023-09-08T09:43:56;3.90;;;2.10;;
5299;SDS011;70402;42.670;23.258;2023-09-08T09:46:22;3.90;;;2.10;;
5299;SDS011;70402;42.670;23.258;2023-09-08T09:48:54;2.90;;;2.40;;
5299;SDS011;70402;42.670;23.258;2023-09-08T09:51:22;3.17;;;2.43;;
5299;SDS011;70402;42.670;23.258;2023-09-08T09:53:51;3.43;;;2.40;;
5299;SDS011;70402;42.670;23.258;2023-09-08T09:56:17;2.90;;;2.13;;
5299;SDS011;70402;42.670;23.258;2023-09-08T09:58:44;6.13;;;2.30;;
5299;SDS011;70402;42.670;23.258;2023-09-08T10:01:10;7.13;;;2.40;;
5299;SDS011;70402;42.670;23.258;2023-09-08T10:03:40;3.57;;;2.60;;
5299;SDS011;70402;42.670;23.258;2023-09-08T10:06:06;4.73;;;2.43;;
5299;SDS011;70402;42.670;23.258;2023-09-08T10:08:33;3.00;;;2.27;;
5299;SDS011;70402;42.670;23.258;2023-09-08T10:11:04;4.07;;;2.70;;
5299;SDS011;70402;42.670;23.258;2023-09-08T10:13:31;3.07;;;2.33;;
5299;SDS011;70402;42.670;23.258;2023-09-08T10:15:58;5.00;;;2.60;;
5299;SDS011;70402;42.670;23.258;2023-09-08T10:18:24;4.80;;;2.40;;
5299;SDS011;70402;42.670;23.258;2023-09-08T10:20:51;7.40;;;2.57;;
5299;SDS011;70402;42.670;23.258;2023-09-08T10:25:45;3.73;;;2.40;;
5299;SDS011;70402;42.670;23.258;2023-09-08T10:28:19;3.13;;;2.40;;
5299;SDS011;70402;42.670;23.258;2023-09-08T10:30:45;5.50;;;3.00;;
5299;SDS011;70402;42.670;23.258;2023-09-08T10:33:11;3.67;;;2.60;;
5299;SDS011;70402;42.670;23.258;2023-09-08T10:35:38;6.33;;;2.20;;
5299;SDS011;70402;42.670;23.258;2023-09-08T10:38:21;5.97;;;2.60;;
5299;SDS011;70402;42.670;23.258;2023-09-08T10:40:48;5.43;;;2.80;;
5299;SDS011;70402;42.670;23.258;2023-09-08T10:43:15;7.03;;;2.60;;
5299;SDS011;70402;42.670;23.258;2023-09-08T10:45:42;3.70;;;2.57;;
5299;SDS011;70402;42.670;23.258;2023-09-08T10:48:09;2.97;;;2.10;;
5299;SDS011;70402;42.670;23.258;2023-09-08T10:50:39;3.80;;;2.73;;
5299;SDS011;70402;42.670;23.258;2023-09-08T10:53:16;3.27;;;2.70;;
5299;SDS011;70402;42.670;23.258;2023-09-08T10:58:16;4.30;;;2.97;;
5299;SDS011;70402;42.670;23.258;2023-09-08T11:00:44;4.57;;;2.60;;
5299;SDS011;70402;42.670;23.258;2023-09-08T11:03:11;8.40;;;2.40;;
5299;SDS011;70402;42.670;23.258;2023-09-08T11:05:37;4.77;;;2.40;;
5299;SDS011;70402;42.670;23.258;2023-09-08T11:08:04;3.60;;;2.43;;
5299;SDS011;70402;42.670;23.258;2023-09-08T11:10:30;2.63;;;2.23;;
5299;SDS011;70402;42.670;23.258;2023-09-08T11:12:56;3.00;;;2.27;;
5299;SDS011;70402;42.670;23.258;2023-09-08T11:15:22;2.23;;;1.87;;
5299;SDS011;70402;42.670;23.258;2023-09-08T11:17:49;2.87;;;2.27;;
5299;SDS011;70402;42.670;23.258;2023-09-08T11:20:25;3.90;;;2.43;;
5299;SDS011;70402;42.670;23.258;2023-09-08T11:22:52;3.00;;;2.20;;
5299;SDS011;70402;42.670;23.258;2023-09-08T11:25:18;5.17;;;2.40;;
5299;SDS011;70402;42.670;23.258;2023-09-08T11:27:46;5.43;;;2.67;;
5299;SDS011;70402;42.670;23.258;2023-09-08T11:30:12;3.30;;;2.30;;
5299;SDS011;70402;42.670;23.258;2023-09-08T11:32:38;3.33;;;2.40;;
5299;SDS011;70402;42.670;23.258;2023-09-08T11:35:05;4.37;;;2.80;;
5299;SDS011;70402;42.670;23.258;2023-09-08T11:37:38;3.50;;;2.60;;
5299;SDS011;70402;42.670;23.258;2023-09-08T11:40:05;3.93;;;2.57;;
5299;SDS011;70402;42.670;23.258;2023-09-08T11:42:38;5.50;;;2.63;;
5299;SDS011;70402;42.670;23.258;2023-09-08T11:45:15;4.63;;;2.70;;
5299;SDS011;70402;42.670;23.258;2023-09-08T11:47:48;8.23;;;2.73;;
5299;SDS011;70402;42.670;23.258;2023-09-08T11:50:15;4.77;;;2.60;;
5299;SDS011;70402;42.670;23.258;2023-09-08T11:52:51;2.93;;;2.13;;
5299;SDS011;70402;42.670;23.258;2023-09-08T11:55:18;5.13;;;2.90;;
5299;SDS011;70402;42.670;23.258;2023-09-08T11:57:48;5.13;;;2.50;;
5299;SDS011;70402;42.670;23.258;2023-09-08T12:00:18;4.40;;;2.63;;
5299;SDS011;70402;42.670;23.258;2023-09-08T12:02:46;3.90;;;2.77;;
5299;SDS011;70402;42.670;23.258;2023-09-08T12:05:13;3.50;;;2.40;;
5299;SDS011;70402;42.670;23.258;2023-09-08T12:07:39;4.47;;;2.70;;
5299;SDS011;70402;42.670;23.258;2023-09-08T12:10:14;4.03;;;2.73;;
5299;SDS011;70402;42.670;23.258;2023-09-08T12:12:47;3.97;;;2.60;;
5299;SDS011;70402;42.670;23.258;2023-09-08T12:15:29;3.30;;;2.43;;
5299;SDS011;70402;42.670;23.258;2023-09-08T12:17:59;2.90;;;2.20;;
5299;SDS011;70402;42.670;23.258;2023-09-08T12:20:25;5.60;;;2.87;;
5299;SDS011;70402;42.670;23.258;2023-09-08T12:22:52;6.50;;;2.53;;
5299;SDS011;70402;42.670;23.258;2023-09-08T12:25:18;4.17;;;2.70;;
5299;SDS011;70402;42.670;23.258;2023-09-08T12:27:45;2.67;;;2.17;;
5299;SDS011;70402;42.670;23.258;2023-09-08T12:30:18;3.93;;;2.43;;
5299;SDS011;70402;42.670;23.258;2023-09-08T12:32:45;4.70;;;2.70;;
5299;SDS011;70402;42.670;23.258;2023-09-08T12:35:13;5.83;;;2.90;;
5299;SDS011;70402;42.670;23.258;2023-09-08T12:37:39;4.17;;;3.07;;
5299;SDS011;70402;42.670;23.258;2023-09-08T12:40:06;4.23;;;2.60;;
5299;SDS011;70402;42.670;23.258;2023-09-08T12:42:32;3.07;;;2.60;;
5299;SDS011;70402;42.670;23.258;2023-09-08T12:44:58;5.70;;;2.57;;
5299;SDS011;70402;42.670;23.258;2023-09-08T12:47:26;4.17;;;2.60;;
5299;SDS011;70402;42.670;23.258;2023-09-08T12:49:52;2.87;;;2.40;;
5299;SDS011;70402;42.670;23.258;2023-09-08T12:52:20;3.03;;;2.47;;
5299;SDS011;70402;42.670;23.258;2023-09-08T12:54:47;4.90;;;2.63;;
5299;SDS011;70402;42.670;23.258;2023-09-08T12:57:13;3.23;;;2.70;;
5299;SDS011;70402;42.670;23.258;2023-09-08T12:59:39;3.10;;;2.30;;
5299;SDS011;70402;42.670;23.258;2023-09-08T13:02:05;5.83;;;2.83;;
5299;SDS011;70402;42.670;23.258;2023-09-08T13:04:32;5.17;;;2.63;;
5299;SDS011;70402;42.670;23.258;2023-09-08T13:06:58;3.93;;;2.10;;
5299;SDS011;70402;42.670;23.258;2023-09-08T13:09:26;6.17;;;3.20;;
5299;SDS011;70402;42.670;23.258;2023-09-08T13:11:52;5.67;;;2.57;;
5299;SDS011;70402;42.670;23.258;2023-09-08T13:14:19;5.57;;;3.00;;
5299;SDS011;70402;42.670;23.258;2023-09-08T13:16:45;3.53;;;2.63;;
5299;SDS011;70402;42.670;23.258;2023-09-08T13:19:11;3.70;;;2.43;;
5299;SDS011;70402;42.670;23.258;2023-09-08T13:21:37;3.63;;;2.30;;
5299;SDS011;70402;42.670;23.258;2023-09-08T13:24:06;3.80;;;2.40;;
5299;SDS011;70402;42.670;23.258;2023-09-08T13:26:33;6.00;;;2.80;;
5299;SDS011;70402;42.670;23.258;2023-09-08T13:28:59;5.97;;;2.67;;
5299;SDS011;70402;42.670;23.258;2023-09-08T13:31:25;4.93;;;2.80;;
5299;SDS011;70402;42.670;23.258;2023-09-08T13:33:51;5.00;;;2.83;;
5299;SDS011;70402;42.670;23.258;2023-09-08T13:36:18;4.93;;;2.50;;
5299;SDS011;70402;42.670;23.258;2023-09-08T13:38:44;2.90;;;2.20;;
5299;SDS011;70402;42.670;23.258;2023-09-08T13:41:10;3.60;;;2.50;;
5299;SDS011;70402;42.670;23.258;2023-09-08T13:43:36;4.53;;;2.30;;
5299;SDS011;70402;42.670;23.258;2023-09-08T13:46:03;4.10;;;2.90;;
5299;SDS011;70402;42.670;23.258;2023-09-08T13:48:29;3.67;;;2.60;;
5299;SDS011;70402;42.670;23.258;2023-09-08T13:51:00;5.03;;;2.43;;
5299;SDS011;70402;42.670;23.258;2023-09-08T13:53:26;4.53;;;2.90;;
5299;SDS011;70402;42.670;23.258;2023-09-08T13:55:52;3.80;;;2.83;;
5299;SDS011;70402;42.670;23.258;2023-09-08T13:58:19;7.53;;;2.43;;
5299;SDS011;70402;42.670;23.258;2023-09-08T14:00:45;4.23;;;2.57;;
5299;SDS011;70402;42.670;23.258;2023-09-08T14:03:14;3.17;;;2.47;;
5299;SDS011;70402;42.670;23.258;2023-09-08T14:05:40;4.33;;;2.70;;
5299;SDS011;70402;42.670;23.258;2023-09-08T14:08:07;4.07;;;2.60;;
5299;SDS011;70402;42.670;23.258;2023-09-08T14:10:33;5.37;;;2.40;;
5299;SDS011;70402;42.670;23.258;2023-09-08T14:12:59;7.27;;;2.40;;
5299;SDS011;70402;42.670;23.258;2023-09-08T14:15:25;3.70;;;2.50;;
5299;SDS011;70402;42.670;23.258;2023-09-08T14:17:52;3.37;;;2.20;;
5299;SDS011;70402;42.670;23.258;2023-09-08T14:20:18;3.10;;;2.40;;
5299;SDS011;70402;42.670;23.258;2023-09-08T14:22:44;4.30;;;2.80;;
5299;SDS011;70402;42.670;23.258;2023-09-08T14:25:11;3.63;;;2.40;;
5299;SDS011;70402;42.670;23.258;2023-09-08T14:27:37;3.13;;;2.40;;
5299;SDS011;70402;42.670;23.258;2023-09-08T14:30:04;17.33;;;2.97;;
5299;SDS011;70402;42.670;23.258;2023-09-08T14:32:30;3.30;;;2.83;;
5299;SDS011;70402;42.670;23.258;2023-09-08T14:34:57;5.30;;;2.87;;
5299;SDS011;70402;42.670;23.258;2023-09-08T14:37:23;4.03;;;2.90;;
5299;SDS011;70402;42.670;23.258;2023-09-08T14:39:49;4.50;;;2.53;;
5299;SDS011;70402;42.670;23.258;2023-09-08T14:42:15;7.27;;;3.23;;
5299;SDS011;70402;42.670;23.258;2023-09-08T14:44:42;3.70;;;2.17;;
5299;SDS011;70402;42.670;23.258;2023-09-08T14:47:08;5.23;;;2.40;;
5299;SDS011;70402;42.670;23.258;2023-09-08T14:49:34;5.17;;;2.40;;
5299;SDS011;70402;42.670;23.258;2023-09-08T14:52:00;3.73;;;2.60;;
5299;SDS011;70402;42.670;23.258;2023-09-08T14:54:27;3.73;;;3.13;;